首页
METAR-TAF:

METAR-TAF

机场 :

普林斯顿, 不列颠哥伦比亚, 加拿大

纬度: 49-28N, 经度: 120-31W, 海拔: 700米

当前天气观测

该预报发布于53分钟前的21:00 UTC
风速2节,风向多变
温度 18°C
湿度 49%
气压 1014 hPa
能見度: 32.2公里
少量云层高于5500英尺
散云层高于6100英尺, 塔状积云.
多云层高于7400英尺
多云层高于8000英尺
多云层高于27000英尺

METAR: CYDC 262100Z VRB02KT 20SM FEW055 SCT061TCU BKN074 BKN080 BKN270 18/07 A2995 RMK CF1TCU3AC3AC1CI1 CF TR CI TR SLP139 DENSITY ALT 3200FT

时间: 14:53 (21:53 UTC)


TAF: 丢失

超过4000个机场的气象观测和天气预报(METAR&TAF报告)。

可查询的气象台以黄色和红色小点在地图上表示。

将鼠标移到小点上方,可查看气象台名称。

然后点击查看天气观测和预报。

如需切换地图:点击带黑十字的绿色按钮放大地图;点击带横线的绿色按钮缩小地图;或者点击绿色箭头查看邻近地区的地图。


METAR-TAF: